Terminal Aerodrome Forecast
Issued by NWS

Home | Current Version | Previous Version | Text Only | Print | Product List | Glossary On
Versions: 1 2 3 4 5 6 7 8 9 10 11 12 13 14 15 16 17 18 19 20
000
FTUS43 KMPX 310500
TAFRNH
TAF
KRNH 310530Z 3106/0106 VRB02KT P6SM SCT090
      TEMPO 3110/3113 1/2SM FG VV003
     FM311400 15008KT 6SM BR SCT060 BKN110
     FM311800 17013G21KT P6SM SCT030 BKN100
     FM010000 17010KT P6SM VCTS SCT040CB BKN080
      TEMPO 0101/0104 1SM TSRA BKN020CB=

USA.gov is the U.S. government's official web portal to all federal, state and local government web resources and services.